createdAt,value
2022-08-08T00:00:51.685Z,1.4
2022-08-08T00:01:00.677Z,1.4
2022-08-08T00:02:30.674Z,1.4
2022-08-08T00:03:20.439Z,1.4
2022-08-08T00:04:24.987Z,1.2
2022-08-08T00:05:43.569Z,1.2
2022-08-08T00:06:38.261Z,1.2
2022-08-08T00:07:46.840Z,2.7
2022-08-08T00:08:55.255Z,2.7
2022-08-08T00:10:03.610Z,2.7
2022-08-08T00:11:13.047Z,2.3
2022-08-08T00:12:23.682Z,2.3
2022-08-08T00:14:15.999Z,2.3
2022-08-08T00:14:48.882Z,1.8
2022-08-08T00:15:56.311Z,1.8
2022-08-08T00:16:54.236Z,1.8
2022-08-08T00:18:04.627Z,1.1
2022-08-08T00:19:11.178Z,1.1
2022-08-08T00:20:19.540Z,1.1
2022-08-08T00:21:29.604Z,1.6
2022-08-08T00:22:39.552Z,1.6
2022-08-08T00:23:47.516Z,1.6
2022-08-08T00:24:53.418Z,0.9
2022-08-08T00:26:01.775Z,0.9
2022-08-08T00:27:10.158Z,0.9
2022-08-08T00:28:34.020Z,1.5
2022-08-08T00:29:44.564Z,1.5
2022-08-08T00:30:35.453Z,1.5
2022-08-08T00:32:15.822Z,2.1
2022-08-08T00:32:52.393Z,2.1
2022-08-08T00:34:17.672Z,2.1
2022-08-08T00:35:09.342Z,1.5
2022-08-08T00:36:17.692Z,1.5
2022-08-08T00:37:45.632Z,1.5
2022-08-08T00:38:44.674Z,1.1
2022-08-08T00:41:08.459Z,1.1
2022-08-08T00:41:08.653Z,1.1
2022-08-08T00:42:08.745Z,2
2022-08-08T00:43:11.745Z,2
2022-08-08T00:44:16.737Z,2
2022-08-08T00:45:25.610Z,3.2
2022-08-08T00:46:56.229Z,3.2
2022-08-08T00:48:01.814Z,3.2
2022-08-08T00:48:59.095Z,2.1
2022-08-08T00:49:59.637Z,2.1
2022-08-08T00:51:07.351Z,2.1
2022-08-08T00:52:19.748Z,1.2
2022-08-08T00:53:24.291Z,1.2
2022-08-08T00:54:32.653Z,1.2
2022-08-08T00:55:53.531Z,1.3
2022-08-08T00:56:49.589Z,1.3
2022-08-08T00:57:58.844Z,1.3
2022-08-08T00:59:06.513Z,2.8
2022-08-08T01:00:16.061Z,2.8
2022-08-08T01:01:29.589Z,2.8
2022-08-08T01:02:34.732Z,2.3
2022-08-08T01:04:00.543Z,2.3
2022-08-08T01:04:48.583Z,2.3
2022-08-08T01:05:59.084Z,1.1
2022-08-08T01:07:05.721Z,1.1
2022-08-08T01:08:13.895Z,1.1
2022-08-08T01:09:35.231Z,2.2
2022-08-08T01:10:30.892Z,2.2
2022-08-08T01:11:39.247Z,2.2
2022-08-08T01:12:47.833Z,1.8
2022-08-08T01:13:58.004Z,1.8
2022-08-08T01:15:06.854Z,1.8
2022-08-08T01:16:13.126Z,1.5
2022-08-08T01:17:25.206Z,1.5
2022-08-08T01:18:50.952Z,1.5
2022-08-08T01:19:42.517Z,1.6
2022-08-08T01:20:46.779Z,1.6
2022-08-08T01:22:07.458Z,1.6
2022-08-08T01:23:03.728Z,2.1
2022-08-08T01:24:13.516Z,2.1
2022-08-08T01:25:26.129Z,2.1
2022-08-08T01:26:29.045Z,3
2022-08-08T01:27:43.694Z,3
2022-08-08T01:28:47.179Z,3
2022-08-08T01:29:59.064Z,1.2
2022-08-08T01:31:02.740Z,1.2
2022-08-08T01:32:15.450Z,1.2
2022-08-08T01:33:23.619Z,1.2
2022-08-08T01:34:28.941Z,1.2
2022-08-08T01:35:38.307Z,1.2
2022-08-08T01:36:48.371Z,1.3
2022-08-08T01:37:56.716Z,1.3
2022-08-08T01:39:01.755Z,1.3
2022-08-08T01:40:14.541Z,0.9
2022-08-08T01:41:18.672Z,0.9
2022-08-08T01:42:35.446Z,0.9
2022-08-08T01:43:38.927Z,2.2
2022-08-08T01:44:43.976Z,2.2
2022-08-08T01:45:54.616Z,2.2
2022-08-08T01:47:00.931Z,1.8
2022-08-08T01:48:15.783Z,1.8
2022-08-08T01:49:22.722Z,1.8
2022-08-08T01:50:26.299Z,1.1
2022-08-08T01:52:03.773Z,1.1
2022-08-08T01:53:03.957Z,1.1
2022-08-08T01:54:01.518Z,1.2
2022-08-08T01:55:18.341Z,1.2
2022-08-08T01:56:27.903Z,1.2
2022-08-08T01:57:17.395Z,1.7
2022-08-08T01:58:32.194Z,1.7
2022-08-08T01:59:38.451Z,1.7
2022-08-08T02:00:42.350Z,2.2
2022-08-08T02:01:54.925Z,2.2
2022-08-08T02:02:58.832Z,2.2
2022-08-08T02:04:07.403Z,2.4
2022-08-08T02:05:15.766Z,2.4
2022-08-08T02:06:31.910Z,2.4
2022-08-08T02:07:34.286Z,2.3
2022-08-08T02:08:41.068Z,2.3
2022-08-08T02:10:02.967Z,2.3
2022-08-08T02:10:57.986Z,2.9
2022-08-08T02:12:06.359Z,2.9
2022-08-08T02:13:52.465Z,2.9
2022-08-08T02:14:23.284Z,2.3
2022-08-08T02:15:34.528Z,2.3
2022-08-08T02:16:40.027Z,2.3
2022-08-08T02:17:50.357Z,1.5
2022-08-08T02:18:58.661Z,1.5
2022-08-08T02:20:08.194Z,1.5
2022-08-08T02:21:18.007Z,2.5
2022-08-08T02:22:22.248Z,2.5
2022-08-08T02:23:32.093Z,2.5
2022-08-08T02:24:39.170Z,2.3
2022-08-08T02:25:48.818Z,2.3
2022-08-08T02:26:57.979Z,2.3
2022-08-08T02:28:04.456Z,1.8
2022-08-08T02:29:14.788Z,1.8
2022-08-08T02:30:24.893Z,1.8
2022-08-08T02:31:44.076Z,1.6
2022-08-08T02:32:38.308Z,1.6
2022-08-08T02:34:00.859Z,1.6
2022-08-08T02:35:08.671Z,2.5
2022-08-08T02:36:05.538Z,2.5
2022-08-08T02:37:51.619Z,2.5
2022-08-08T02:38:25.226Z,2.2
2022-08-08T02:39:41.412Z,2.2
2022-08-08T02:40:37.146Z,2.2
2022-08-08T02:41:59.773Z,1.6
2022-08-08T02:43:00.787Z,1.6
2022-08-08T02:44:36.152Z,1.6
2022-08-08T02:45:18.370Z,2.1
2022-08-08T02:46:19.296Z,2.1
2022-08-08T02:47:27.663Z,2.1
2022-08-08T02:48:36.248Z,2.4
2022-08-08T02:49:47.666Z,2.4
2022-08-08T02:50:55.519Z,2.4
2022-08-08T02:52:04.436Z,1.8
2022-08-08T02:53:09.910Z,1.8
2022-08-08T02:54:18.269Z,1.8
2022-08-08T02:55:31.889Z,2.5
2022-08-08T02:56:35.204Z,2.5
2022-08-08T02:57:44.829Z,2.5
2022-08-08T02:58:52.155Z,4.1
2022-08-08T03:00:15.777Z,4.1
2022-08-08T03:01:14.808Z,4.1
2022-08-08T03:02:20.000Z,2.9
2022-08-08T03:03:46.423Z,2.9
2022-08-08T03:05:02.244Z,2.9
2022-08-08T03:05:45.078Z,2
2022-08-08T03:06:51.115Z,2
2022-08-08T03:07:59.522Z,2
2022-08-08T03:09:08.047Z,2.1
2022-08-08T03:10:17.793Z,2.1
2022-08-08T03:11:25.874Z,2.1
2022-08-08T03:12:36.209Z,2.1
2022-08-08T03:15:54.867Z,2.1
2022-08-08T03:15:55.407Z,2.1
2022-08-08T03:16:05.474Z,2.9
2022-08-08T03:17:06.994Z,2.9
2022-08-08T03:18:15.366Z,2.9
2022-08-08T03:19:23.935Z,2.1
2022-08-08T03:20:32.293Z,2.1
2022-08-08T03:21:55.083Z,2.1
2022-08-08T03:22:56.580Z,1.5
2022-08-08T03:23:59.582Z,1.5
2022-08-08T03:25:09.360Z,1.5
2022-08-08T03:26:14.508Z,1.9
2022-08-08T03:27:27.038Z,1.9
2022-08-08T03:28:31.281Z,1.9
2022-08-08T03:29:55.516Z,2.1
2022-08-08T03:31:07.623Z,2.1
2022-08-08T03:32:05.600Z,2.1
2022-08-08T03:33:07.764Z,1.6
2022-08-08T03:34:14.725Z,1.6
2022-08-08T03:35:23.084Z,1.6
2022-08-08T03:36:31.663Z,2.4
2022-08-08T03:38:00.360Z,2.4
2022-08-08T03:38:53.293Z,2.4
2022-08-08T03:40:00.357Z,2
2022-08-08T03:41:08.739Z,2
2022-08-08T03:42:29.063Z,2
2022-08-08T03:43:22.215Z,1.9
2022-08-08T03:44:30.593Z,1.9
2022-08-08T03:46:03.675Z,1.9
2022-08-08T03:46:47.510Z,1.7
2022-08-08T03:47:55.904Z,1.7
2022-08-08T03:49:10.319Z,1.7
2022-08-08T03:50:12.815Z,2.2
2022-08-08T03:51:26.628Z,2.2
2022-08-08T03:52:29.580Z,2.2
2022-08-08T03:53:42.795Z,3.1
2022-08-08T03:54:52.661Z,3.1
2022-08-08T03:55:58.120Z,3.1
2022-08-08T03:58:09.372Z,1.4
2022-08-08T03:58:32.665Z,1.4
2022-08-08T03:59:22.500Z,1.4
2022-08-08T04:00:30.440Z,2.7
2022-08-08T04:02:02.352Z,2.7
2022-08-08T04:02:47.183Z,2.7
2022-08-08T04:03:57.074Z,2.7
2022-08-08T04:05:02.342Z,2.7
2022-08-08T04:06:10.686Z,2.7
2022-08-08T04:07:19.245Z,1.9
2022-08-08T04:08:32.685Z,1.9
2022-08-08T04:09:53.491Z,1.9
2022-08-08T04:10:44.530Z,3.8
2022-08-08T04:11:58.542Z,3.8
2022-08-08T04:13:03.686Z,3.8
2022-08-08T04:14:33.010Z,4.4
2022-08-08T04:15:18.207Z,4.4
2022-08-08T04:16:38.222Z,4.4
2022-08-08T04:17:46.950Z,3.3
2022-08-08T04:18:44.783Z,3.3
2022-08-08T04:19:52.029Z,3.3
2022-08-08T04:21:00.930Z,3.2
2022-08-08T04:22:08.753Z,3.2
2022-08-08T04:23:17.100Z,3.2
2022-08-08T04:24:29.070Z,3.1
2022-08-08T04:25:38.186Z,3.1
2022-08-08T04:26:56.977Z,3.1
2022-08-08T04:28:03.765Z,3
2022-08-08T04:28:59.328Z,3
2022-08-08T04:30:17.043Z,3
2022-08-08T04:31:30.537Z,2.3
2022-08-08T04:32:30.481Z,2.3
2022-08-08T04:33:38.706Z,2.3
2022-08-08T04:34:43.237Z,2
2022-08-08T04:35:50.839Z,2
2022-08-08T04:36:58.249Z,2
2022-08-08T04:38:06.836Z,1.8
2022-08-08T04:39:48.267Z,1.8
2022-08-08T04:40:23.946Z,1.8
2022-08-08T04:41:35.748Z,3.1
2022-08-08T04:42:46.973Z,3.1
2022-08-08T04:43:53.997Z,3.1
2022-08-08T04:44:57.410Z,1.8
2022-08-08T04:46:05.769Z,1.8
2022-08-08T04:47:14.130Z,1.8
2022-08-08T04:48:22.693Z,2.6
2022-08-08T04:49:59.237Z,2.6
2022-08-08T04:50:40.131Z,2.6
2022-08-08T04:51:48.662Z,3
2022-08-08T04:52:58.879Z,3
2022-08-08T04:54:36.755Z,3
2022-08-08T04:55:13.288Z,4
2022-08-08T04:56:21.657Z,4
2022-08-08T04:57:30.021Z,4
2022-08-08T04:58:38.605Z,2.9
2022-08-08T04:59:46.973Z,2.9
2022-08-08T05:00:55.325Z,2.9
2022-08-08T05:02:03.909Z,2.3
2022-08-08T05:03:12.811Z,2.3
2022-08-08T05:04:20.742Z,2.3
2022-08-08T05:05:39.488Z,2.2
2022-08-08T05:06:38.975Z,2.2
2022-08-08T05:07:45.993Z,2.2
2022-08-08T05:08:54.543Z,2.2
2022-08-08T05:10:02.890Z,2.2
2022-08-08T05:11:11.248Z,2.2
2022-08-08T05:12:20.367Z,2.7
2022-08-08T05:13:28.150Z,2.7
2022-08-08T05:14:36.481Z,2.7
2022-08-08T05:16:48.815Z,3.7
2022-08-08T05:17:01.282Z,3.7
2022-08-08T05:18:01.763Z,3.7
2022-08-08T05:19:10.337Z,3.2
2022-08-08T05:20:18.703Z,3.2
2022-08-08T05:21:27.064Z,3.2
2022-08-08T05:22:35.621Z,2.4
2022-08-08T05:23:45.867Z,2.4
2022-08-08T05:24:52.353Z,2.4
2022-08-08T05:26:00.912Z,2.3
2022-08-08T05:27:09.279Z,2.3
2022-08-08T05:28:54.308Z,2.3
2022-08-08T05:29:27.117Z,2.3
2022-08-08T05:30:34.644Z,2.3
2022-08-08T05:32:02.842Z,2.3
2022-08-08T05:32:51.606Z,3.3
2022-08-08T05:33:59.868Z,3.3
2022-08-08T05:35:09.482Z,3.3
2022-08-08T05:36:25.312Z,2
2022-08-08T05:37:28.246Z,2
2022-08-08T05:38:33.569Z,2
2022-08-08T05:39:42.214Z,3.1
2022-08-08T05:40:53.330Z,3.1
2022-08-08T05:41:58.841Z,3.1
2022-08-08T05:43:15.725Z,3.4
2022-08-08T05:44:15.776Z,3.4
2022-08-08T05:45:25.817Z,3.4
2022-08-08T05:46:32.699Z,6.3
2022-08-08T05:47:41.552Z,6.3
2022-08-08T05:48:49.848Z,6.3
2022-08-08T05:49:58.014Z,4.5
2022-08-08T05:51:13.158Z,4.5
2022-08-08T05:52:14.735Z,4.5
2022-08-08T05:53:55.531Z,4.8
2022-08-08T05:54:43.107Z,4.8
2022-08-08T05:56:08.225Z,4.8
2022-08-08T05:56:48.619Z,3.4
2022-08-08T05:57:59.593Z,3.4
2022-08-08T05:59:05.370Z,3.4
2022-08-08T06:00:23.355Z,3.2
2022-08-08T06:01:50.790Z,3.2
2022-08-08T06:02:30.668Z,3.2
2022-08-08T06:03:39.284Z,3
2022-08-08T06:04:47.683Z,3
2022-08-08T06:05:56.542Z,3
2022-08-08T06:07:04.479Z,2.2
2022-08-08T06:08:20.511Z,2.2
2022-08-08T06:09:42.147Z,2.2
2022-08-08T06:10:29.732Z,3.3
2022-08-08T06:11:39.680Z,3.3
2022-08-08T06:12:46.431Z,3.3
2022-08-08T06:13:55.009Z,3.4
2022-08-08T06:15:03.763Z,3.4
2022-08-08T06:16:11.686Z,3.4
2022-08-08T06:17:20.252Z,2
2022-08-08T06:18:29.000Z,2
2022-08-08T06:19:36.969Z,2
2022-08-08T06:20:45.525Z,3.4
2022-08-08T06:21:57.170Z,3.4
2022-08-08T06:23:02.352Z,3.4
2022-08-08T06:24:13.621Z,2
2022-08-08T06:25:19.114Z,2
2022-08-08T06:26:35.431Z,2
2022-08-08T06:27:36.031Z,2.7
2022-08-08T06:28:44.380Z,2.7
2022-08-08T06:30:00.644Z,2.7
2022-08-08T06:31:01.310Z,5.2
2022-08-08T06:32:15.157Z,5.2
2022-08-08T06:33:18.058Z,5.2
2022-08-08T06:34:28.314Z,4.5
2022-08-08T06:36:04.013Z,4.5
2022-08-08T06:36:53.076Z,4.5
2022-08-08T06:37:55.683Z,3
2022-08-08T06:39:00.276Z,3
2022-08-08T06:40:10.522Z,3
2022-08-08T06:41:17.192Z,3.2
2022-08-08T06:42:25.568Z,3.2
2022-08-08T06:43:34.584Z,3.2
2022-08-08T06:44:42.799Z,3
2022-08-08T06:45:50.891Z,3
2022-08-08T06:46:59.248Z,3
2022-08-08T06:48:08.501Z,3.8
2022-08-08T06:49:16.196Z,3.8
2022-08-08T06:50:31.665Z,3.8
2022-08-08T06:51:46.816Z,4.2
2022-08-08T06:52:42.901Z,4.2
2022-08-08T06:53:50.566Z,4.2
2022-08-08T06:54:58.472Z,2.6
2022-08-08T06:56:06.814Z,2.6
2022-08-08T06:57:15.249Z,2.6
2022-08-08T06:58:23.750Z,3
2022-08-08T06:59:34.332Z,3
2022-08-08T07:00:40.770Z,3
2022-08-08T07:02:18.311Z,3.2
2022-08-08T07:02:57.442Z,3.2
2022-08-08T07:04:39.219Z,3.2
2022-08-08T07:05:20.231Z,5.8
2022-08-08T07:06:22.749Z,5.8
2022-08-08T07:07:32.751Z,5.8
2022-08-08T07:08:39.677Z,4.3
2022-08-08T07:09:56.729Z,4.3
2022-08-08T07:10:56.386Z,4.3
2022-08-08T07:12:04.960Z,2.4
2022-08-08T07:13:13.323Z,2.4
2022-08-08T07:14:21.756Z,2.4
2022-08-08T07:15:32.478Z,2.9
2022-08-08T07:16:50.977Z,2.9
2022-08-08T07:17:56.763Z,2.9
2022-08-08T07:18:55.834Z,2.8
2022-08-08T07:20:03.906Z,2.8
2022-08-08T07:21:18.747Z,2.8
2022-08-08T07:22:20.847Z,3.1
2022-08-08T07:23:29.206Z,3.1
2022-08-08T07:24:37.563Z,3.1
2022-08-08T07:25:54.380Z,3.1
2022-08-08T07:26:54.511Z,3.1
2022-08-08T07:28:07.899Z,3.1
2022-08-08T07:29:20.745Z,4.2
2022-08-08T07:30:25.432Z,4.2
2022-08-08T07:31:28.212Z,4.2
2022-08-08T07:32:36.802Z,8.1
2022-08-08T07:33:53.217Z,8.1
2022-08-08T07:35:00.661Z,8.1
2022-08-08T07:36:02.072Z,2.2
2022-08-08T07:37:11.667Z,2.2
2022-08-08T07:38:20.758Z,2.2
2022-08-08T07:39:29.257Z,1.6
2022-08-08T07:40:35.814Z,1.6
2022-08-08T07:41:59.011Z,1.6
2022-08-08T07:42:52.707Z,1.3
2022-08-08T07:44:02.301Z,1.3
2022-08-08T07:45:09.453Z,1.3
2022-08-08T07:46:24.660Z,2.5
2022-08-08T07:47:29.300Z,2.5
2022-08-08T07:48:34.910Z,2.5
2022-08-08T07:49:46.153Z,2.2
2022-08-08T07:50:51.946Z,2.2
2022-08-08T07:52:00.323Z,2.2
2022-08-08T07:53:08.880Z,1.2
2022-08-08T07:54:26.480Z,1.2
2022-08-08T07:55:28.834Z,1.2
2022-08-08T07:56:35.876Z,2.4
2022-08-08T07:57:44.984Z,2.4
2022-08-08T07:58:50.904Z,2.4
2022-08-08T07:59:59.479Z,2.2
2022-08-08T08:01:08.223Z,2.2
2022-08-08T08:02:34.182Z,2.2
2022-08-08T08:03:28.240Z,2.4
2022-08-08T08:04:33.154Z,2.4
2022-08-08T08:05:41.526Z,2.4
2022-08-08T08:06:50.092Z,2.8
2022-08-08T08:07:58.446Z,2.8
2022-08-08T08:09:06.806Z,2.8
2022-08-08T08:10:15.386Z,2
2022-08-08T08:11:23.743Z,2
2022-08-08T08:12:35.815Z,2
2022-08-08T08:13:42.338Z,1.8
2022-08-08T08:14:49.037Z,1.8
2022-08-08T08:15:57.406Z,1.8
2022-08-08T08:17:05.964Z,2.4
2022-08-08T08:18:14.563Z,2.4
2022-08-08T08:19:22.682Z,2.4
2022-08-08T08:20:31.253Z,2
2022-08-08T08:21:45.004Z,2
2022-08-08T08:22:47.979Z,2
2022-08-08T08:23:59.929Z,1.8
2022-08-08T08:25:07.917Z,1.8
2022-08-08T08:26:13.399Z,1.8
2022-08-08T08:27:22.011Z,2.8
2022-08-08T08:28:30.381Z,2.8
2022-08-08T08:29:38.749Z,2.8
2022-08-08T08:30:47.333Z,2.1
2022-08-08T08:31:58.058Z,2.1
2022-08-08T08:33:04.124Z,2.1
2022-08-08T08:34:12.697Z,1.6
2022-08-08T08:35:21.352Z,1.6
2022-08-08T08:36:29.509Z,1.6
2022-08-08T08:37:53.230Z,2.8
2022-08-08T08:38:49.830Z,2.8
2022-08-08T08:40:00.732Z,2.8
2022-08-08T08:41:06.194Z,4.3
2022-08-08T08:42:11.767Z,4.3
2022-08-08T08:43:20.136Z,4.3
2022-08-08T08:44:28.924Z,3.3
2022-08-08T08:45:37.103Z,3.3
2022-08-08T08:46:45.695Z,3.3
2022-08-08T08:47:54.860Z,1.8
2022-08-08T08:49:02.426Z,1.8
2022-08-08T08:50:17.261Z,1.8
2022-08-08T08:51:19.390Z,2.3
2022-08-08T08:52:28.625Z,2.3
2022-08-08T08:53:55.635Z,2.3
2022-08-08T08:54:44.726Z,2.8
2022-08-08T08:55:53.151Z,2.8
2022-08-08T08:57:01.486Z,2.8
2022-08-08T08:58:10.113Z,2.3
2022-08-08T08:59:22.205Z,2.3
2022-08-08T09:00:35.481Z,2.3
2022-08-08T09:01:35.560Z,2.7
2022-08-08T09:02:43.898Z,2.7
2022-08-08T09:03:52.285Z,2.7
2022-08-08T09:05:00.900Z,4.2
2022-08-08T09:06:26.234Z,4.2
2022-08-08T09:07:17.618Z,4.2
2022-08-08T09:08:26.185Z,2.1
2022-08-08T09:09:35.633Z,2.1
2022-08-08T09:10:42.915Z,2.1
2022-08-08T09:11:52.105Z,1.7
2022-08-08T09:12:59.886Z,1.7
2022-08-08T09:14:08.303Z,1.7
2022-08-08T09:15:18.572Z,3.4
2022-08-08T09:16:26.700Z,3.4
2022-08-08T09:17:41.420Z,3.4
2022-08-08T09:18:42.249Z,3.6
2022-08-08T09:21:54.555Z,3.6
2022-08-08T09:21:54.632Z,3.6
2022-08-08T09:22:07.704Z,1.8
2022-08-08T09:23:17.469Z,1.8
2022-08-08T09:24:24.414Z,1.8
2022-08-08T09:25:35.742Z,2.6
2022-08-08T09:26:41.395Z,2.6
2022-08-08T09:27:56.610Z,2.6
2022-08-08T09:28:59.000Z,3.7
2022-08-08T09:30:06.859Z,3.7
2022-08-08T09:31:15.237Z,3.7
2022-08-08T09:32:23.846Z,2.5
2022-08-08T09:33:55.109Z,2.5
2022-08-08T09:34:42.119Z,2.5
2022-08-08T09:35:50.644Z,3.8
2022-08-08T09:37:28.953Z,3.8
2022-08-08T09:38:06.139Z,3.8
2022-08-08T09:39:15.727Z,3.1
2022-08-08T09:40:24.069Z,3.1
2022-08-08T09:41:33.461Z,3.1
2022-08-08T09:42:43.947Z,2.7
2022-08-08T09:44:04.831Z,2.7
2022-08-08T09:44:56.763Z,2.7
2022-08-08T09:46:06.555Z,1.8
2022-08-08T09:47:25.306Z,1.8
2022-08-08T09:48:23.565Z,1.8
2022-08-08T09:49:41.905Z,2.7
2022-08-08T09:50:43.865Z,2.7
2022-08-08T09:52:01.536Z,2.7
2022-08-08T09:53:00.939Z,4.3
2022-08-08T09:54:07.914Z,4.3
2022-08-08T09:55:17.370Z,4.3
2022-08-08T09:56:21.896Z,2.8
2022-08-08T09:57:34.942Z,2.8
2022-08-08T09:58:40.431Z,2.8
2022-08-08T09:59:53.572Z,2.9
2022-08-08T10:00:56.864Z,2.9
2022-08-08T10:02:12.462Z,2.9
2022-08-08T10:03:12.153Z,1.8
2022-08-08T10:04:38.407Z,1.8
2022-08-08T10:05:31.249Z,1.8
2022-08-08T10:06:38.261Z,1.8
2022-08-08T10:07:45.871Z,1.8
2022-08-08T10:08:54.240Z,1.8
2022-08-08T10:10:02.821Z,1.9
2022-08-08T10:11:12.254Z,1.9
2022-08-08T10:12:23.314Z,1.9
2022-08-08T10:13:29.959Z,2.1
2022-08-08T10:14:38.529Z,2.1
2022-08-08T10:15:59.617Z,2.1
2022-08-08T10:16:53.510Z,2
2022-08-08T10:18:08.662Z,2
2022-08-08T10:19:10.271Z,2
2022-08-08T10:20:18.862Z,3.6
2022-08-08T10:21:28.466Z,3.6
2022-08-08T10:22:35.948Z,3.6
2022-08-08T10:23:48.247Z,3.3
2022-08-08T10:24:52.581Z,3.3
2022-08-08T10:26:00.969Z,3.3
2022-08-08T10:27:13.184Z,2
2022-08-08T10:28:17.930Z,2
2022-08-08T10:29:28.267Z,2
2022-08-08T10:30:57.163Z,1.5
2022-08-08T10:31:47.156Z,1.5
2022-08-08T10:32:51.703Z,1.5
2022-08-08T10:34:18.360Z,3
2022-08-08T10:35:10.480Z,3
2022-08-08T10:36:20.916Z,3
2022-08-08T10:37:25.624Z,1.3
2022-08-08T10:38:34.005Z,1.3
2022-08-08T10:39:43.791Z,1.3
2022-08-08T10:40:50.962Z,1.3
2022-08-08T10:42:15.181Z,1.3
2022-08-08T10:43:09.726Z,1.3
2022-08-08T10:44:16.487Z,2
2022-08-08T10:45:24.852Z,2
2022-08-08T10:46:33.210Z,2
2022-08-08T10:47:43.490Z,2
2022-08-08T10:48:56.418Z,2
2022-08-08T10:50:00.141Z,2
2022-08-08T10:51:07.194Z,3
2022-08-08T10:52:15.566Z,3
2022-08-08T10:53:39.470Z,3
2022-08-08T10:54:33.972Z,3.2
2022-08-08T10:55:45.857Z,3.2
2022-08-08T10:56:49.440Z,3.2
2022-08-08T10:57:58.134Z,2.4
2022-08-08T10:59:06.532Z,2.4
2022-08-08T11:00:15.033Z,2.4
2022-08-08T11:01:23.636Z,5
2022-08-08T11:02:32.283Z,5
2022-08-08T11:03:52.951Z,5
2022-08-08T11:04:52.938Z,3.2
2022-08-08T11:06:00.531Z,3.2
2022-08-08T11:07:05.762Z,3.2
2022-08-08T11:08:30.418Z,2.7
2022-08-08T11:09:24.282Z,2.7
2022-08-08T11:10:32.664Z,2.7
2022-08-08T11:12:00.586Z,2.4
2022-08-08T11:12:57.869Z,2.4
2022-08-08T11:13:59.759Z,2.4
2022-08-08T11:15:06.607Z,3.6
2022-08-08T11:16:32.060Z,3.6
2022-08-08T11:17:57.955Z,3.6
2022-08-08T11:18:31.992Z,2.4
2022-08-08T11:19:40.354Z,2.4
2022-08-08T11:20:52.180Z,2.4
2022-08-08T11:21:57.328Z,1.9
2022-08-08T11:23:06.086Z,1.9
2022-08-08T11:24:14.130Z,1.9
2022-08-08T11:25:22.707Z,1.8
2022-08-08T11:26:31.115Z,1.8
2022-08-08T11:27:39.475Z,1.8
2022-08-08T11:28:50.082Z,2.4
2022-08-08T11:30:04.133Z,2.4
2022-08-08T11:31:04.898Z,2.4
2022-08-08T11:32:13.550Z,2.1
2022-08-08T11:33:22.203Z,2.1
2022-08-08T11:34:46.819Z,2.1
2022-08-08T11:35:42.443Z,1.8
2022-08-08T11:36:50.996Z,1.8
2022-08-08T11:38:34.863Z,1.8
2022-08-08T11:39:05.439Z,1.9
2022-08-08T11:40:13.850Z,1.9
2022-08-08T11:41:22.161Z,1.9
2022-08-08T11:42:31.456Z,1.2
2022-08-08T11:43:41.989Z,1.2
2022-08-08T11:44:47.511Z,1.2
2022-08-08T11:46:14.520Z,1.8
2022-08-08T11:47:04.482Z,1.8
2022-08-08T11:48:12.872Z,1.8
2022-08-08T11:49:22.802Z,3.3
2022-08-08T11:50:29.851Z,3.3
2022-08-08T11:51:49.721Z,3.3
2022-08-08T11:52:47.393Z,1.9
2022-08-08T11:53:59.361Z,1.9
2022-08-08T11:55:03.491Z,1.9
2022-08-08T11:56:12.066Z,1.8
2022-08-08T11:57:21.861Z,1.8
2022-08-08T11:58:28.841Z,1.8
2022-08-08T11:59:58.072Z,1.9
2022-08-08T12:00:45.792Z,1.9
2022-08-08T12:02:05.118Z,1.9
2022-08-08T12:03:02.837Z,1.3
2022-08-08T12:04:11.095Z,1.3
2022-08-08T12:05:22.372Z,1.3
2022-08-08T12:06:28.033Z,2.2
2022-08-08T12:07:36.399Z,2.2
2022-08-08T12:08:44.780Z,2.2
2022-08-08T12:09:57.234Z,1.5
2022-08-08T12:11:01.732Z,1.5
2022-08-08T12:12:10.098Z,1.5
2022-08-08T12:13:18.687Z,2.7
2022-08-08T12:14:29.169Z,2.7
2022-08-08T12:15:40.198Z,2.7
2022-08-08T12:16:47.421Z,2.7
2022-08-08T12:17:52.388Z,2.7
2022-08-08T12:19:00.767Z,2.7
2022-08-08T12:20:09.349Z,2.2
2022-08-08T12:21:17.729Z,2.2
2022-08-08T12:22:29.046Z,2.2
2022-08-08T12:23:40.512Z,2
2022-08-08T12:24:43.068Z,2
2022-08-08T12:25:52.585Z,2
2022-08-08T12:27:00.039Z,3.2
2022-08-08T12:28:11.753Z,3.2
2022-08-08T12:29:16.777Z,3.2
2022-08-08T12:30:25.411Z,1.5
2022-08-08T12:31:38.638Z,1.5
2022-08-08T12:32:42.102Z,1.5
2022-08-08T12:34:01.685Z,1.9
2022-08-08T12:35:01.617Z,1.9
2022-08-08T12:36:07.440Z,1.9
2022-08-08T12:37:16.000Z,2
2022-08-08T12:38:29.490Z,2
2022-08-08T12:39:56.411Z,2
2022-08-08T12:40:44.575Z,1.9
2022-08-08T12:41:56.727Z,1.9
2022-08-08T12:42:58.121Z,1.9
2022-08-08T12:44:06.695Z,3
2022-08-08T12:45:20.116Z,3
2022-08-08T12:46:25.049Z,3
2022-08-08T12:47:58.223Z,2.5
2022-08-08T12:48:40.403Z,2.5
2022-08-08T12:49:48.772Z,2.5
2022-08-08T12:50:58.301Z,2.4
2022-08-08T12:52:05.731Z,2.4
2022-08-08T12:53:14.112Z,2.4
2022-08-08T12:54:24.165Z,1.6
2022-08-08T12:55:50.262Z,1.6
2022-08-08T12:56:39.449Z,1.6
2022-08-08T12:57:49.680Z,2.1
2022-08-08T12:58:56.403Z,2.1
2022-08-08T13:00:11.360Z,2.1
2022-08-08T13:01:13.447Z,2.4
2022-08-08T13:02:21.781Z,2.4
2022-08-08T13:03:33.470Z,2.4
2022-08-08T13:04:38.718Z,1.9
2022-08-08T13:06:03.335Z,1.9
2022-08-08T13:06:55.459Z,1.9
2022-08-08T13:08:05.256Z,3
2022-08-08T13:09:12.439Z,3
2022-08-08T13:10:20.853Z,3
2022-08-08T13:12:18.179Z,2.4
2022-08-08T13:12:38.461Z,2.4
2022-08-08T13:13:46.181Z,2.4
2022-08-08T13:14:54.789Z,3.9
2022-08-08T13:16:03.174Z,3.9
2022-08-08T13:17:54.568Z,3.9
2022-08-08T13:18:24.789Z,2.5
2022-08-08T13:19:28.594Z,2.5
2022-08-08T13:20:36.959Z,2.5
2022-08-08T13:21:49.387Z,2.6
2022-08-08T13:23:08.298Z,2.6
2022-08-08T13:24:02.305Z,2.6
2022-08-08T13:25:10.942Z,3
2022-08-08T13:26:19.382Z,3
2022-08-08T13:27:35.381Z,3
2022-08-08T13:28:37.551Z,3.9
2022-08-08T13:29:44.673Z,3.9
2022-08-08T13:30:53.064Z,3.9
2022-08-08T13:32:01.659Z,1.5
2022-08-08T13:33:10.068Z,1.5
2022-08-08T13:34:21.240Z,1.5
2022-08-08T13:35:29.411Z,3.8
2022-08-08T13:36:35.436Z,3.8
2022-08-08T13:37:51.957Z,3.8
2022-08-08T13:38:52.457Z,2.9
2022-08-08T13:40:00.824Z,2.9
2022-08-08T13:41:15.838Z,2.9
2022-08-08T13:42:17.826Z,3
2022-08-08T13:43:26.288Z,3
2022-08-08T13:44:34.640Z,3
2022-08-08T13:45:43.224Z,1.7
2022-08-08T13:46:51.588Z,1.7
2022-08-08T13:48:00.043Z,1.7
2022-08-08T13:49:12.485Z,3.5
2022-08-08T13:50:34.170Z,3.5
2022-08-08T13:51:34.349Z,3.5
2022-08-08T13:52:36.275Z,2.6
2022-08-08T13:53:53.095Z,2.6
2022-08-08T13:54:50.779Z,2.6
2022-08-08T13:55:59.356Z,2.1
2022-08-08T13:57:08.481Z,2.1
2022-08-08T13:58:17.458Z,2.1
2022-08-08T13:59:24.715Z,4.6
2022-08-08T14:00:33.071Z,4.6
2022-08-08T14:01:42.211Z,4.6
2022-08-08T14:02:50.097Z,1.7
2022-08-08T14:03:58.627Z,1.7
2022-08-08T14:05:09.354Z,1.7
2022-08-08T14:06:20.720Z,1.8
2022-08-08T14:07:23.946Z,1.8
2022-08-08T14:08:34.909Z,1.8
2022-08-08T14:10:02.955Z,3.7
2022-08-08T14:10:49.271Z,3.7
2022-08-08T14:11:57.639Z,3.7
2022-08-08T14:13:06.267Z,2.9
2022-08-08T14:14:14.653Z,2.9
2022-08-08T14:15:23.042Z,2.9
2022-08-08T14:16:31.626Z,5.7
2022-08-08T14:17:58.642Z,5.7
2022-08-08T14:18:52.352Z,5.7
2022-08-08T14:20:05.100Z,2.5
2022-08-08T14:21:08.027Z,2.5
2022-08-08T14:22:13.779Z,2.5
2022-08-08T14:24:03.643Z,3.7
2022-08-08T14:24:30.755Z,3.7
2022-08-08T14:25:39.122Z,3.7
2022-08-08T14:26:47.711Z,4.1
2022-08-08T14:27:59.898Z,4.1
2022-08-08T14:29:05.740Z,4.1
2022-08-08T15:07:37.045Z,0
2022-08-08T15:08:54.913Z,0
2022-08-08T15:09:51.351Z,0
2022-08-08T15:10:59.398Z,2.4
2022-08-08T15:12:08.959Z,2.4
2022-08-08T15:13:17.423Z,2.4
2022-08-08T15:14:26.726Z,3.6
2022-08-08T15:16:01.144Z,3.6
2022-08-08T15:18:10.647Z,2.6
2022-08-08T15:19:18.058Z,2.6
2022-08-08T15:20:26.476Z,2.6
2022-08-08T15:21:37.714Z,2.2
2022-08-08T15:22:44.502Z,2.2
2022-08-08T15:23:52.148Z,2.2
2022-08-08T15:25:00.749Z,2.8
2022-08-08T15:26:12.701Z,2.8
2022-08-08T15:27:57.445Z,2.8
2022-08-08T15:28:34.297Z,2.7
2022-08-08T15:29:34.735Z,2.7
2022-08-08T15:30:43.171Z,2.7
2022-08-08T15:32:03.388Z,3.7
2022-08-08T15:33:00.301Z,3.7
2022-08-08T15:34:19.015Z,3.7
2022-08-08T15:35:17.393Z,3.3
2022-08-08T15:36:28.534Z,3.3
2022-08-08T15:37:34.276Z,3.3
2022-08-08T15:38:49.693Z,6.5
2022-08-08T15:39:51.730Z,6.5
2022-08-08T15:40:59.784Z,6.5
2022-08-08T15:42:10.096Z,2.5
2022-08-08T15:43:18.942Z,2.5
2022-08-08T15:44:25.368Z,2.5
2022-08-08T15:45:33.994Z,2.2
2022-08-08T15:46:45.115Z,2.2
2022-08-08T15:47:57.561Z,2.2
2022-08-08T15:48:59.525Z,2.1
2022-08-08T15:50:16.947Z,2.1
2022-08-08T15:51:16.396Z,2.1
2022-08-08T15:52:25.255Z,2.7
2022-08-08T15:53:40.700Z,2.7
2022-08-08T15:54:41.939Z,2.7
2022-08-08T15:55:50.581Z,2.4
2022-08-08T15:56:59.055Z,2.4
2022-08-08T15:58:07.479Z,2.4
2022-08-08T15:59:16.132Z,2.6
2022-08-08T16:00:26.453Z,2.6
2022-08-08T16:01:40.302Z,2.6
2022-08-08T16:02:44.352Z,1.7
2022-08-08T16:03:51.455Z,1.7
2022-08-08T16:04:59.073Z,1.7
2022-08-08T16:06:07.215Z,4.2
2022-08-08T16:07:15.679Z,4.2
2022-08-08T16:08:24.080Z,4.2
2022-08-08T16:13:01.350Z,2.3
2022-08-08T16:13:01.726Z,2.3
2022-08-08T16:13:01.877Z,3.8
2022-08-08T16:13:06.282Z,2.3
2022-08-08T16:14:11.430Z,3.8
2022-08-08T16:15:16.305Z,3.8
2022-08-08T16:16:24.201Z,2.3
2022-08-08T16:17:39.061Z,2.3
2022-08-08T16:18:41.126Z,2.3
2022-08-08T16:19:57.082Z,4.4
2022-08-08T16:21:00.162Z,4.4
2022-08-08T16:22:07.463Z,4.4
2022-08-08T16:23:16.119Z,1.6
2022-08-08T16:24:24.441Z,1.6
2022-08-08T16:25:46.047Z,1.6
2022-08-08T16:26:42.314Z,2.7
2022-08-08T16:27:55.317Z,2.7